createdAt,value
2018-09-10T00:03:53.884Z,4.90
2018-09-10T00:09:12.466Z,4.27
2018-09-10T00:14:18.095Z,5.20
2018-09-10T00:19:22.184Z,7.13
2018-09-10T00:24:25.837Z,5.77
2018-09-10T00:29:29.322Z,6.23
2018-09-10T00:34:32.748Z,5.83
2018-09-10T00:39:36.347Z,4.90
2018-09-10T00:44:40.292Z,4.60
2018-09-10T00:49:43.976Z,4.97
2018-09-10T00:54:48.101Z,4.80
2018-09-10T00:59:52.415Z,4.90
2018-09-10T01:04:55.784Z,4.43
2018-09-10T01:09:59.267Z,6.33
2018-09-10T01:15:03.065Z,5.57
2018-09-10T01:20:06.661Z,4.20
2018-09-10T01:25:10.678Z,5.80
2018-09-10T01:30:14.966Z,3.97
2018-09-10T01:35:18.560Z,4.03
2018-09-10T01:40:22.118Z,4.60
2018-09-10T01:45:25.928Z,3.60
2018-09-10T01:50:29.518Z,4.67
2018-09-10T01:55:33.566Z,5.40
2018-09-10T02:00:37.959Z,6.10
2018-09-10T02:05:41.708Z,6.93
2018-09-10T02:10:45.216Z,4.70
2018-09-10T02:15:51.594Z,6.20
2018-09-10T02:20:55.044Z,5.87
2018-09-10T02:25:58.523Z,5.30
2018-09-10T02:31:03.485Z,5.30
2018-09-10T02:36:07.236Z,7.90
2018-09-10T02:41:10.665Z,7.90
2018-09-10T02:46:14.238Z,6.83
2018-09-10T02:52:32.143Z,5.90
2018-09-10T02:57:35.517Z,7.63
2018-09-10T03:02:39.640Z,7.97
2018-09-10T03:07:43.808Z,6.77
2018-09-10T03:12:47.547Z,7.80
2018-09-10T03:17:51.672Z,6.00
2018-09-10T03:22:55.441Z,10.87
2018-09-10T03:27:59.360Z,9.60
2018-09-10T03:33:08.171Z,10.23
2018-09-10T03:38:12.643Z,8.10
2018-09-10T03:43:20.091Z,11.60
2018-09-10T03:48:23.865Z,8.77
2018-09-10T03:53:27.531Z,9.17
2018-09-10T03:58:30.920Z,6.10
2018-09-10T04:03:34.983Z,8.67
2018-09-10T04:08:39.284Z,7.40
2018-09-10T04:13:43.466Z,8.90
2018-09-10T04:18:47.265Z,7.30
2018-09-10T04:23:50.819Z,8.00
2018-09-10T04:28:54.186Z,10.50
2018-09-10T04:33:57.851Z,8.47
2018-09-10T04:39:01.271Z,12.87
2018-09-10T04:44:05.070Z,16.37
2018-09-10T04:49:09.688Z,7.20
2018-09-10T04:54:13.147Z,8.00
2018-09-10T04:59:16.602Z,7.83
2018-09-10T05:04:20.367Z,9.73
2018-09-10T05:09:23.691Z,10.93
2018-09-10T05:14:27.059Z,13.20
2018-09-10T05:19:32.048Z,15.00
2018-09-10T05:24:41.692Z,11.40
2018-09-10T05:29:45.622Z,11.17
2018-09-10T05:34:56.027Z,13.37
2018-09-10T05:39:59.964Z,12.30
2018-09-10T05:45:03.352Z,10.33
2018-09-10T05:50:14.330Z,14.30
2018-09-10T05:55:18.720Z,13.27
2018-09-10T06:00:22.097Z,11.20
2018-09-10T06:05:25.728Z,15.53
2018-09-10T06:10:29.126Z,16.30
2018-09-10T06:15:32.465Z,19.50
2018-09-10T06:20:35.824Z,23.30
2018-09-10T06:25:39.192Z,21.30
2018-09-10T06:30:42.541Z,16.20
2018-09-10T06:35:46.094Z,20.77
2018-09-10T06:40:49.879Z,16.40
2018-09-10T06:45:53.397Z,21.53
2018-09-10T06:50:56.914Z,15.10
2018-09-10T06:56:01.841Z,14.53
2018-09-10T07:01:05.302Z,19.50
2018-09-10T07:06:12.390Z,14.70
2018-09-10T07:11:16.271Z,10.07
2018-09-10T07:16:19.667Z,12.03
2018-09-10T07:21:23.531Z,17.30
2018-09-10T07:26:26.921Z,10.57
2018-09-10T07:31:30.345Z,15.50
2018-09-10T07:36:34.088Z,17.57
2018-09-10T07:41:37.853Z,13.73
2018-09-10T07:46:41.327Z,15.90
2018-09-10T07:51:44.719Z,12.17
2018-09-10T07:56:48.056Z,13.47
2018-09-10T08:01:51.412Z,12.90
2018-09-10T08:06:55.001Z,11.70
2018-09-10T08:11:58.307Z,8.47
2018-09-10T08:17:01.946Z,8.83
2018-09-10T08:22:05.346Z,8.00
2018-09-10T08:27:08.730Z,5.60
2018-09-10T08:32:12.204Z,5.60
2018-09-10T08:37:15.728Z,5.90
2018-09-10T08:42:19.037Z,5.90
2018-09-10T08:47:22.692Z,5.83
2018-09-10T08:52:26.177Z,3.93
2018-09-10T08:57:29.550Z,5.40
2018-09-10T09:02:32.972Z,4.47
2018-09-10T09:07:36.920Z,4.37
2018-09-10T09:12:40.344Z,4.20
2018-09-10T09:17:44.095Z,4.43
2018-09-10T09:22:48.077Z,3.50
2018-09-10T09:27:51.765Z,4.60
2018-09-10T09:32:55.180Z,4.47
2018-09-10T09:38:03.869Z,4.37
2018-09-10T09:43:12.713Z,4.50
2018-09-10T09:48:16.093Z,3.30
2018-09-10T09:53:20.068Z,3.27
2018-09-10T09:58:23.529Z,3.20
2018-09-10T10:03:32.434Z,3.80
2018-09-10T10:08:40.997Z,2.80
2018-09-10T10:13:44.848Z,3.50
2018-09-10T10:18:48.333Z,2.90
2018-09-10T10:23:52.075Z,4.27
2018-09-10T10:28:55.545Z,2.63
2018-09-10T10:33:59.017Z,2.93
2018-09-10T10:39:05.292Z,3.63
2018-09-10T10:44:08.622Z,2.67
2018-09-10T10:49:12.071Z,3.27
2018-09-10T10:54:15.887Z,3.23
2018-09-10T10:59:19.364Z,3.60
2018-09-10T11:04:22.781Z,3.87
2018-09-10T11:09:33.119Z,3.83
2018-09-10T11:14:37.015Z,3.33
2018-09-10T11:19:40.417Z,2.40
2018-09-10T11:24:43.851Z,2.90
2018-09-10T11:29:47.551Z,3.00
2018-09-10T11:34:51.879Z,3.70
2018-09-10T11:39:55.472Z,3.50
2018-09-10T11:44:58.785Z,2.43
2018-09-10T11:50:02.238Z,2.67
2018-09-10T11:55:06.999Z,3.20
2018-09-10T12:00:10.895Z,2.10
2018-09-10T12:05:14.336Z,2.87
2018-09-10T12:10:17.763Z,2.90
2018-09-10T12:15:21.250Z,3.10
2018-09-10T12:20:24.646Z,3.20
2018-09-10T12:25:28.181Z,2.87
2018-09-10T12:30:32.050Z,2.80
2018-09-10T12:35:35.496Z,2.70
2018-09-10T12:40:39.532Z,2.33
2018-09-10T12:45:42.917Z,2.70
2018-09-10T12:50:46.221Z,3.17
2018-09-10T12:55:49.614Z,2.73
2018-09-10T13:00:52.969Z,2.70
2018-09-10T13:05:56.822Z,2.17
2018-09-10T13:11:06.651Z,2.33
2018-09-10T13:16:14.597Z,4.00
2018-09-10T13:21:18.936Z,2.90
2018-09-10T13:26:22.378Z,3.20
2018-09-10T13:31:25.740Z,3.83
2018-09-10T13:36:29.392Z,2.60
2018-09-10T13:41:33.118Z,2.90
2018-09-10T13:46:36.483Z,3.20
2018-09-10T13:51:39.821Z,3.17
2018-09-10T13:56:43.409Z,2.80
2018-09-10T14:01:46.755Z,4.07
2018-09-10T14:06:50.519Z,2.50
2018-09-10T14:11:54.175Z,3.43
2018-09-10T14:16:57.529Z,2.73
2018-09-10T14:22:00.906Z,2.50
2018-09-10T14:27:04.580Z,2.67
2018-09-10T14:32:07.906Z,3.27
2018-09-10T14:37:11.453Z,3.60
2018-09-10T14:42:15.595Z,3.50
2018-09-10T14:47:19.079Z,2.73
2018-09-10T14:52:22.456Z,2.40
2018-09-10T14:57:30.222Z,2.97
2018-09-10T15:02:34.328Z,3.20
2018-09-10T15:07:37.730Z,3.27
2018-09-10T15:12:41.578Z,3.13
2018-09-10T15:17:45.195Z,2.70
2018-09-10T15:22:48.537Z,3.10
2018-09-10T15:27:52.240Z,3.20
2018-09-10T15:32:55.814Z,3.03
2018-09-10T15:37:59.227Z,2.90
2018-09-10T15:43:02.963Z,2.90
2018-09-10T15:48:06.311Z,4.03
2018-09-10T15:53:13.213Z,4.40
2018-09-10T15:58:20.872Z,3.17
2018-09-10T16:03:24.808Z,3.60
2018-09-10T16:08:28.787Z,3.90
2018-09-10T16:13:32.366Z,3.20
2018-09-10T16:18:35.756Z,4.97
2018-09-10T16:23:39.390Z,3.53
2018-09-10T16:28:46.473Z,3.87
2018-09-10T16:33:50.174Z,3.60
2018-09-10T16:38:53.582Z,3.73
2018-09-10T16:43:57.209Z,3.90
2018-09-10T16:49:00.681Z,4.17
2018-09-10T16:54:08.106Z,3.67
2018-09-10T16:59:12.511Z,3.23
2018-09-10T17:04:22.634Z,3.92
2018-09-10T17:09:26.913Z,3.40
2018-09-10T17:14:31.254Z,2.93
2018-09-10T17:19:34.847Z,3.23
2018-09-10T17:24:38.267Z,3.97
2018-09-10T17:29:41.651Z,3.00
2018-09-10T17:34:45.075Z,3.80
2018-09-10T17:39:48.853Z,3.90
2018-09-10T17:44:54.101Z,3.03
2018-09-10T17:49:57.473Z,3.50
2018-09-10T17:55:00.828Z,3.77
2018-09-10T18:00:08.940Z,3.17
2018-09-10T18:05:17.046Z,2.93
2018-09-10T18:10:21.329Z,2.37
2018-09-10T18:15:24.826Z,3.03
2018-09-10T18:20:28.224Z,2.77
2018-09-10T18:25:32.081Z,2.33
2018-09-10T18:30:35.653Z,2.80
2018-09-10T18:35:39.602Z,4.13
2018-09-10T18:40:43.005Z,3.07
2018-09-10T18:45:47.005Z,3.20
2018-09-10T18:50:50.485Z,3.60
2018-09-10T18:55:53.876Z,3.27
2018-09-10T19:00:57.529Z,2.63
2018-09-10T19:06:00.933Z,3.63
2018-09-10T19:11:04.377Z,3.10
2018-09-10T19:16:08.625Z,3.53
2018-09-10T19:21:12.028Z,4.00
2018-09-10T19:26:15.809Z,3.93
2018-09-10T19:31:19.282Z,4.87
2018-09-10T19:36:22.710Z,4.23
2018-09-10T19:41:26.162Z,3.10
2018-09-10T19:46:30.155Z,4.60
2018-09-10T19:51:33.571Z,3.80
2018-09-10T19:56:37.495Z,4.30
2018-09-10T20:01:41.307Z,3.67
2018-09-10T20:06:44.738Z,4.70
2018-09-10T20:11:48.155Z,4.90
2018-09-10T20:16:51.825Z,4.20
2018-09-10T20:21:55.234Z,5.07
2018-09-10T20:26:58.744Z,5.03
2018-09-10T20:32:02.165Z,4.70
2018-09-10T20:37:05.877Z,3.50
2018-09-10T20:42:09.322Z,4.90
2018-09-10T20:47:13.238Z,5.60
2018-09-10T20:52:16.972Z,5.40
2018-09-10T20:57:20.434Z,4.93
2018-09-10T21:02:25.072Z,6.83
2018-09-10T21:07:29.546Z,4.97
2018-09-10T21:12:33.018Z,4.37
2018-09-10T21:17:36.463Z,5.93
2018-09-10T21:22:39.794Z,5.53
2018-09-10T21:27:43.178Z,5.70
2018-09-10T21:32:46.565Z,6.70
2018-09-10T21:37:50.224Z,3.97
2018-09-10T21:42:53.628Z,3.10
2018-09-10T21:47:57.262Z,3.87
2018-09-10T21:53:01.058Z,3.07
2018-09-10T21:58:04.479Z,4.80
2018-09-10T22:03:08.603Z,3.20
2018-09-10T22:08:12.917Z,2.73
2018-09-10T22:13:17.431Z,3.20
2018-09-10T22:18:21.079Z,2.67
2018-09-10T22:23:24.491Z,3.50
2018-09-10T22:28:28.221Z,3.80
2018-09-10T22:33:38.246Z,3.73
2018-09-10T22:38:42.831Z,5.63
2018-09-10T22:43:46.448Z,4.00
2018-09-10T22:48:50.471Z,3.90
2018-09-10T22:53:53.847Z,4.10
2018-09-10T22:58:57.961Z,4.30
2018-09-10T23:04:01.878Z,5.20
2018-09-10T23:09:07.675Z,4.53
2018-09-10T23:14:11.118Z,3.60
2018-09-10T23:19:16.538Z,3.27
2018-09-10T23:24:20.164Z,3.20
2018-09-10T23:29:23.978Z,4.27
2018-09-10T23:34:27.553Z,3.83
2018-09-10T23:39:31.332Z,3.90
2018-09-10T23:44:35.170Z,3.80
2018-09-10T23:49:39.026Z,2.87
2018-09-10T23:54:42.865Z,3.33
